createdAt,value
2022-09-27T03:48:04.306Z,3.95
2022-09-27T03:51:06.840Z,3.75
2022-09-27T03:54:09.526Z,3.70
2022-09-27T03:57:11.833Z,2.72
2022-09-27T04:00:15.570Z,2.62
2022-09-27T04:03:19.776Z,3.80
2022-09-27T04:06:25.468Z,5.87
2022-09-27T04:09:27.917Z,3.45
2022-09-27T04:12:30.485Z,3.33
2022-09-27T04:15:32.773Z,5.10
2022-09-27T04:18:37.344Z,6.30
2022-09-27T04:21:41.650Z,3.58
2022-09-27T04:24:44.446Z,2.58
2022-09-27T04:27:48.278Z,8.25
2022-09-27T04:30:50.756Z,3.42
2022-09-27T04:33:55.534Z,4.03
2022-09-27T04:36:57.858Z,2.22
2022-09-27T04:40:01.331Z,5.57
2022-09-27T04:43:04.734Z,2.92
2022-09-27T04:46:06.880Z,3.55
2022-09-27T04:49:09.352Z,4.87
2022-09-27T04:52:11.642Z,3.15
2022-09-27T04:55:13.997Z,2.53
2022-09-27T04:58:16.180Z,6.95
2022-09-27T05:01:18.783Z,5.62
2022-09-27T05:04:21.746Z,5.85
2022-09-27T05:07:24.394Z,19.08
2022-09-27T05:10:26.802Z,5.70
2022-09-27T05:13:29.106Z,6.20
2022-09-27T05:16:34.084Z,8.70
2022-09-27T05:19:39.973Z,7.68
2022-09-27T05:22:42.966Z,12.00
2022-09-27T05:25:45.337Z,8.20
2022-09-27T05:28:47.640Z,9.43
2022-09-27T05:31:51.121Z,11.90
2022-09-27T05:34:54.272Z,13.35
2022-09-27T05:37:59.182Z,17.33
2022-09-27T05:41:01.519Z,8.13
2022-09-27T05:44:04.113Z,14.50
2022-09-27T05:47:06.484Z,14.45
2022-09-27T05:50:09.817Z,7.60
2022-09-27T05:53:13.308Z,9.65
2022-09-27T05:56:17.107Z,9.38
2022-09-27T05:59:21.022Z,9.75
2022-09-27T06:02:25.558Z,8.13
2022-09-27T06:05:36.693Z,10.70
2022-09-27T06:08:40.988Z,13.20
2022-09-27T06:11:46.135Z,14.60
2022-09-27T06:14:48.357Z,16.60
2022-09-27T06:17:51.222Z,8.50
2022-09-27T06:20:53.389Z,11.75
2022-09-27T06:23:56.288Z,9.70
2022-09-27T06:26:59.000Z,12.25
2022-09-27T06:30:01.497Z,14.10
2022-09-27T06:33:04.563Z,9.45
2022-09-27T06:36:08.082Z,8.73
2022-09-27T06:39:10.474Z,11.48
2022-09-27T06:42:13.789Z,8.68
2022-09-27T06:45:26.393Z,8.88
2022-09-27T06:48:37.218Z,10.90
2022-09-27T06:51:39.600Z,8.75
2022-09-27T06:54:42.002Z,10.45
2022-09-27T06:58:02.843Z,9.27
2022-09-27T07:01:06.153Z,8.65
2022-09-27T07:04:13.225Z,11.60
2022-09-27T07:07:15.726Z,10.48
2022-09-27T07:10:18.933Z,9.05
2022-09-27T07:13:22.094Z,6.70
2022-09-27T07:16:24.660Z,12.85
2022-09-27T07:19:27.117Z,10.10
2022-09-27T07:22:30.838Z,10.75
2022-09-27T07:25:34.109Z,6.30
2022-09-27T07:28:36.857Z,9.82
2022-09-27T07:31:39.300Z,8.63
2022-09-27T07:34:41.390Z,9.82
2022-09-27T07:37:43.757Z,7.03
2022-09-27T07:40:46.591Z,10.82
2022-09-27T07:43:48.945Z,8.98
2022-09-27T07:46:51.108Z,6.78
2022-09-27T07:49:53.654Z,10.20
2022-09-27T07:52:56.114Z,7.62
2022-09-27T07:56:01.186Z,8.52
2022-09-27T07:59:03.484Z,5.82
2022-09-27T08:02:06.177Z,9.88
2022-09-27T08:05:10.766Z,4.47
2022-09-27T08:08:14.389Z,7.37
2022-09-27T08:11:18.945Z,7.72
2022-09-27T08:14:23.293Z,6.65
2022-09-27T08:17:26.225Z,7.60
2022-09-27T08:20:30.313Z,8.23
2022-09-27T08:23:32.659Z,7.12
2022-09-27T08:26:39.448Z,9.60
2022-09-27T08:29:42.162Z,8.40
2022-09-27T08:32:44.273Z,5.95
2022-09-27T08:35:46.622Z,11.15
2022-09-27T08:38:50.298Z,8.90
2022-09-27T08:42:23.870Z,14.70
2022-09-27T08:45:33.076Z,20.25
2022-09-27T08:48:38.434Z,5.80
2022-09-27T08:51:42.591Z,6.35
2022-09-27T08:54:45.630Z,4.90
2022-09-27T08:57:56.272Z,7.37
2022-09-27T09:01:03.508Z,5.72
2022-09-27T09:04:08.441Z,6.78
2022-09-27T09:07:20.646Z,5.25
2022-09-27T09:10:57.920Z,4.00
2022-09-27T09:14:13.650Z,5.37
2022-09-27T09:17:24.863Z,4.32
2022-09-27T09:20:34.392Z,5.22
2022-09-27T09:24:06.373Z,5.15
2022-09-27T09:27:34.166Z,7.90
2022-09-27T09:31:01.738Z,6.57
2022-09-27T09:34:23.966Z,3.53
2022-09-27T09:37:48.894Z,5.82
2022-09-27T09:41:22.515Z,4.53
2022-09-27T09:44:29.872Z,4.25
2022-09-27T09:47:39.897Z,6.72
2022-09-27T09:50:47.466Z,12.25
2022-09-27T09:54:03.609Z,6.68
2022-09-27T09:57:11.093Z,5.07
2022-09-27T10:00:16.469Z,7.37
2022-09-27T10:03:19.678Z,7.85
2022-09-27T10:06:24.108Z,7.53
2022-09-27T10:09:28.375Z,7.22
2022-09-27T10:12:32.535Z,10.20
2022-09-27T10:15:35.530Z,7.62
2022-09-27T10:18:39.658Z,8.82
2022-09-27T10:21:45.170Z,7.18
2022-09-27T10:25:04.259Z,6.22
2022-09-27T10:28:07.029Z,7.15
2022-09-27T10:31:13.464Z,6.68
2022-09-27T10:34:41.650Z,7.47
2022-09-27T10:37:45.240Z,8.95
2022-09-27T10:40:53.931Z,7.00
2022-09-27T10:43:56.058Z,5.53
2022-09-27T10:47:06.457Z,8.90
2022-09-27T10:50:38.809Z,4.93
2022-09-27T10:53:46.784Z,10.55
2022-09-27T10:57:19.866Z,6.72
2022-09-27T11:00:31.270Z,13.93
2022-09-27T11:03:38.134Z,5.43
2022-09-27T11:06:43.062Z,5.03
2022-09-27T11:10:02.800Z,4.30
2022-09-27T11:13:17.161Z,6.70
2022-09-27T11:16:41.883Z,4.87
2022-09-27T11:20:01.185Z,7.20
2022-09-27T11:23:16.607Z,11.60
2022-09-27T11:26:26.596Z,8.48
2022-09-27T11:29:45.858Z,7.05
2022-09-27T11:32:55.962Z,7.10
2022-09-27T11:36:28.433Z,7.57
2022-09-27T11:39:42.935Z,4.65
2022-09-27T11:42:55.663Z,10.95
2022-09-27T11:46:37.151Z,9.10
2022-09-27T11:50:18.352Z,6.53
2022-09-27T11:53:45.761Z,5.67
2022-09-27T11:57:00.052Z,6.37
2022-09-27T12:00:27.179Z,3.72
2022-09-27T12:03:52.522Z,14.82
2022-09-27T12:07:09.024Z,7.68
2022-09-27T12:10:17.032Z,5.15
2022-09-27T12:13:52.991Z,5.87
2022-09-27T12:16:57.578Z,5.50
2022-09-27T12:20:06.546Z,6.05
2022-09-27T12:23:18.206Z,4.95
2022-09-27T12:26:27.927Z,9.60
2022-09-27T12:29:36.314Z,5.20
2022-09-27T12:33:06.980Z,5.00
2022-09-27T12:36:17.170Z,7.03
2022-09-27T12:39:33.236Z,7.90
2022-09-27T12:46:17.630Z,15.57
2022-09-27T12:50:01.496Z,7.00
2022-09-27T12:53:13.857Z,8.45
2022-09-27T12:56:25.838Z,6.45
2022-09-27T12:59:34.269Z,5.12
2022-09-27T13:03:22.525Z,3.90
2022-09-27T13:06:43.758Z,2.60
2022-09-27T13:09:58.130Z,4.47
2022-09-27T13:13:01.847Z,4.43
2022-09-27T13:16:05.042Z,2.58
2022-09-27T13:19:34.207Z,4.18
2022-09-27T13:22:38.991Z,3.85
2022-09-27T13:25:55.507Z,3.33
2022-09-27T13:29:02.180Z,4.22
2022-09-27T13:32:15.441Z,3.30
2022-09-27T13:35:27.031Z,3.37
2022-09-27T13:38:30.690Z,4.10
2022-09-27T13:41:46.021Z,1.83
2022-09-27T13:45:05.046Z,3.78
2022-09-27T13:48:18.864Z,3.60
2022-09-27T13:51:50.028Z,3.20
2022-09-27T13:54:56.980Z,3.17
2022-09-27T14:01:35.022Z,2.05
2022-09-27T14:04:44.181Z,2.40
2022-09-27T14:07:49.688Z,3.78
2022-09-27T14:10:54.135Z,2.33
2022-09-27T14:13:57.359Z,1.48
2022-09-27T14:17:00.895Z,3.75
2022-09-27T14:20:03.898Z,1.90
2022-09-27T14:23:13.426Z,0.43
2022-09-27T14:26:25.328Z,1.75
2022-09-27T14:29:32.484Z,0.20
2022-09-27T14:32:45.840Z,0.10
2022-09-27T14:36:08.399Z,0.03
2022-09-27T14:39:25.394Z,0.57
2022-09-27T14:42:32.854Z,1.20
2022-09-27T14:45:40.327Z,0.10
2022-09-27T14:48:43.990Z,0.17
2022-09-27T14:51:52.686Z,0.20
2022-09-27T14:54:57.429Z,1.17
2022-09-27T14:58:02.969Z,0.20
2022-09-27T15:01:05.445Z,0.20
2022-09-27T15:04:13.626Z,0.10
2022-09-27T15:07:17.026Z,1.45
2022-09-27T15:10:22.125Z,0.00
2022-09-27T15:13:26.882Z,0.77
2022-09-27T15:16:31.152Z,0.25
2022-09-27T15:19:34.514Z,0.52
2022-09-27T15:22:45.835Z,0.35
2022-09-27T15:26:09.793Z,0.35
2022-09-27T15:29:24.630Z,0.10
2022-09-27T15:32:28.946Z,0.10
2022-09-27T15:35:33.926Z,0.10
2022-09-27T15:38:47.303Z,0.17
